Terminal Aerodrome Forecast
Issued by NWS

Home | Current Version | Previous Version | Graphics & Text | Print | Product List | Glossary On
Versions: 1 2 3 4 5 6 7 8 9 10 11 12 13 14 15 16 17 18
000
FTUS42 KMHX 210554 CCA
TAFPGV
TAF COR
KPGV 210554Z 2106/2206 00000KT 5SM -RA BR BKN007
     FM210800 VRB04KT 5SM -SHRA BR SCT007 OVC015
     FM211100 24005KT P6SM VCSH OVC025
     FM211500 24008KT P6SM BKN020
     FM211800 24008KT P6SM BKN035
     FM220000 21004KT P6SM SCT090
      AMD LTD TO CLD VIS AND WIND=

USA.gov is the U.S. government's official web portal to all federal, state and local government web resources and services.